Time;durP1;ratioP1;P1;durP2;ratioP2;P2;SDS_P1;SDS_P2;PMS_P1;PMS_P2;Temp;Humidity;BMP_temperature;BMP_pressure;BME280_temperature;BME280_humidity;BME280_pressure;Samples;Min_cycle;Max_cycle;Signal;HPM_P1;HPM_P2
2021/07/16 00:01:24;;;;;;;17.10;11.13;;;;;;;;;;5005870;28;20076;-78
2021/07/16 00:03:51;;;;;;;16.00;10.93;;;;;;;;;;5008298;28;20053;-78
2021/07/16 00:06:27;;;;;;;17.60;10.90;;;;;;;;;;5005167;28;20128;-78
2021/07/16 00:08:54;;;;;;;15.57;10.60;;;;;;;;;;5007412;28;20165;-78
2021/07/16 00:11:22;;;;;;;14.95;9.80;;;;;;;;;;5007611;28;20089;-78
2021/07/16 00:13:50;;;;;;;17.75;10.02;;;;;;;;;;5005752;28;20661;-77
2021/07/16 00:16:17;;;;;;;20.58;9.70;;;;;;;;;;5006741;28;20062;-78
2021/07/16 00:18:44;;;;;;;13.40;9.98;;;;;;;;;;5006212;28;20659;-78
2021/07/16 00:21:12;;;;;;;19.75;11.15;;;;;;;;;;5005558;28;20566;-78
2021/07/16 00:23:39;;;;;;;18.35;11.77;;;;;;;;;;5005421;28;20133;-78
2021/07/16 00:26:06;;;;;;;17.02;11.32;;;;;;;;;;5004483;28;20053;-79
2021/07/16 00:28:33;;;;;;;15.75;11.45;;;;;;;;;;5003931;28;20165;-79
2021/07/16 00:31:00;;;;;;;15.77;10.75;;;;;;;;;;5003618;28;20096;-79
2021/07/16 00:33:28;;;;;;;19.48;11.48;;;;;;;;;;5005419;28;20053;-78
2021/07/16 00:35:55;;;;;;;20.60;12.38;;;;;;;;;;5003301;28;20164;-78
2021/07/16 00:38:22;;;;;;;27.05;13.82;;;;;;;;;;5007370;28;20050;-78
2021/07/16 00:40:49;;;;;;;15.90;11.15;;;;;;;;;;5004426;28;20471;-78
2021/07/16 00:43:16;;;;;;;22.20;13.13;;;;;;;;;;5004660;28;20048;-78
2021/07/16 00:45:43;;;;;;;16.50;11.38;;;;;;;;;;5006981;28;20153;-78
2021/07/16 00:48:10;;;;;;;20.88;12.45;;;;;;;;;;5007030;28;20768;-78
2021/07/16 00:50:38;;;;;;;21.42;12.50;;;;;;;;;;5006618;28;20140;-78
2021/07/16 00:53:09;;;;;;;20.08;12.85;;;;;;;;;;5005601;28;20172;-78
2021/07/16 00:55:37;;;;;;;22.33;14.05;;;;;;;;;;5007346;28;20129;-78
2021/07/16 00:58:04;;;;;;;21.20;11.77;;;;;;;;;;5006597;28;20088;-78
2021/07/16 01:00:31;;;;;;;22.83;12.40;;;;;;;;;;5006940;28;20068;-78
2021/07/16 01:02:59;;;;;;;23.25;13.10;;;;;;;;;;5003510;28;20050;-78
2021/07/16 01:05:26;;;;;;;23.13;12.57;;;;;;;;;;5005893;28;20175;-78
2021/07/16 01:07:55;;;;;;;21.63;12.38;;;;;;;;;;5005644;28;20121;-78
2021/07/16 01:10:22;;;;;;;18.73;12.45;;;;;;;;;;5005500;28;20158;-78
2021/07/16 01:12:52;;;;;;;18.73;11.82;;;;;;;;;;5006347;28;20046;-78
2021/07/16 01:15:21;;;;;;;21.75;13.23;;;;;;;;;;5006824;28;20082;-78
2021/07/16 01:17:49;;;;;;;24.70;14.30;;;;;;;;;;5006595;28;20570;-77
2021/07/16 01:20:22;;;;;;;21.77;12.18;;;;;;;;;;5007026;28;20048;-78
2021/07/16 01:22:50;;;;;;;19.10;13.45;;;;;;;;;;5004594;28;20087;-77
2021/07/16 01:25:19;;;;;;;20.92;13.00;;;;;;;;;;5005982;28;20129;-77
2021/07/16 01:27:47;;;;;;;21.88;13.18;;;;;;;;;;5005639;28;20136;-77
2021/07/16 01:30:15;;;;;;;26.13;15.15;;;;;;;;;;5006161;28;20060;-77
2021/07/16 01:32:42;;;;;;;20.80;12.73;;;;;;;;;;5004770;28;20056;-77
2021/07/16 01:35:10;;;;;;;21.77;13.57;;;;;;;;;;5005865;28;20068;-77
2021/07/16 01:37:38;;;;;;;24.02;14.13;;;;;;;;;;5004774;28;20061;-77
2021/07/16 01:40:09;;;;;;;22.55;12.65;;;;;;;;;;5005707;28;20085;-77
2021/07/16 01:42:44;;;;;;;18.05;12.75;;;;;;;;;;5005500;28;20066;-77
2021/07/16 01:45:19;;;;;;;22.27;12.73;;;;;;;;;;4995389;28;20115;-77
2021/07/16 01:47:48;;;;;;;23.15;14.63;;;;;;;;;;5004793;28;20598;-77
2021/07/16 01:50:16;;;;;;;18.35;12.63;;;;;;;;;;5005658;28;20112;-77
2021/07/16 01:52:45;;;;;;;22.20;13.45;;;;;;;;;;5005944;28;20851;-77
2021/07/16 01:55:13;;;;;;;20.80;13.40;;;;;;;;;;5005544;28;20109;-77
2021/07/16 01:57:40;;;;;;;21.33;13.45;;;;;;;;;;5005349;28;20149;-77
2021/07/16 02:00:09;;;;;;;21.92;12.73;;;;;;;;;;5003895;28;20471;-77
2021/07/16 02:02:44;;;;;;;22.27;12.20;;;;;;;;;;5005638;28;20073;-77
2021/07/16 02:05:11;;;;;;;19.38;12.25;;;;;;;;;;5008812;28;20137;-77
2021/07/16 02:07:38;;;;;;;17.02;11.65;;;;;;;;;;5009597;28;20133;-77
2021/07/16 02:10:06;;;;;;;19.10;12.35;;;;;;;;;;5007444;28;20146;-77
2021/07/16 02:12:33;;;;;;;22.05;13.00;;;;;;;;;;5009113;28;20133;-77
2021/07/16 02:15:00;;;;;;;22.42;14.60;;;;;;;;;;5008414;28;20057;-77
2021/07/16 02:17:27;;;;;;;25.25;15.18;;;;;;;;;;5009660;28;20080;-77
2021/07/16 02:19:54;;;;;;;24.27;15.07;;;;;;;;;;5009585;28;20073;-77
2021/07/16 02:22:22;;;;;;;21.75;13.20;;;;;;;;;;5010098;28;20097;-78
2021/07/16 02:24:49;;;;;;;23.95;13.05;;;;;;;;;;5007975;28;20140;-78
2021/07/16 02:27:16;;;;;;;21.48;14.52;;;;;;;;;;5009406;28;20085;-77
2021/07/16 02:29:43;;;;;;;26.67;14.45;;;;;;;;;;5008005;28;20140;-78
2021/07/16 02:32:10;;;;;;;20.45;13.52;;;;;;;;;;5007700;28;20156;-77
2021/07/16 02:34:37;;;;;;;25.48;15.02;;;;;;;;;;5007982;28;20141;-77
2021/07/16 02:37:04;;;;;;;24.50;16.00;;;;;;;;;;5007791;28;20527;-78
2021/07/16 02:39:32;;;;;;;22.73;14.35;;;;;;;;;;4999895;28;20557;-78
2021/07/16 02:42:02;;;;;;;25.92;14.43;;;;;;;;;;5002515;28;20819;-77
2021/07/16 02:44:29;;;;;;;23.02;15.70;;;;;;;;;;5008131;28;20538;-78
2021/07/16 02:46:56;;;;;;;22.90;13.48;;;;;;;;;;5009351;28;20046;-78
2021/07/16 02:49:23;;;;;;;28.33;15.40;;;;;;;;;;5009164;28;20135;-78
2021/07/16 02:51:50;;;;;;;30.00;17.33;;;;;;;;;;5008425;28;20161;-77
2021/07/16 02:54:18;;;;;;;26.15;16.35;;;;;;;;;;5008440;28;20649;-77
2021/07/16 02:56:45;;;;;;;24.08;14.00;;;;;;;;;;5007149;28;20140;-77
2021/07/16 02:59:12;;;;;;;32.70;15.65;;;;;;;;;;5008722;28;20052;-77
2021/07/16 03:01:53;;;;;;;35.60;16.90;;;;;;;;;;5008593;28;20064;-77
2021/07/16 03:04:21;;;;;;;29.17;16.88;;;;;;;;;;4996422;28;20046;-77
2021/07/16 03:06:49;;;;;;;27.38;17.33;;;;;;;;;;5008462;28;20052;-77
2021/07/16 03:09:16;;;;;;;30.17;15.80;;;;;;;;;;5007296;28;20061;-77
2021/07/16 03:11:43;;;;;;;31.23;16.00;;;;;;;;;;5008602;28;20489;-78
2021/07/16 03:14:10;;;;;;;25.10;15.48;;;;;;;;;;5006494;28;20084;-77
2021/07/16 03:16:38;;;;;;;27.05;15.45;;;;;;;;;;5008606;28;20148;-78
2021/07/16 03:19:05;;;;;;;29.67;16.83;;;;;;;;;;5006431;28;20052;-78
2021/07/16 03:21:33;;;;;;;32.40;19.15;;;;;;;;;;5007845;28;20052;-78
2021/07/16 03:24:01;;;;;;;41.28;21.15;;;;;;;;;;5008593;28;20124;-77
2021/07/16 03:26:28;;;;;;;37.30;21.23;;;;;;;;;;5007119;28;20108;-78
2021/07/16 03:28:55;;;;;;;45.55;20.63;;;;;;;;;;5006891;28;20144;-78
2021/07/16 03:31:22;;;;;;;31.90;18.60;;;;;;;;;;5007140;28;20060;-77
2021/07/16 03:33:49;;;;;;;32.67;18.95;;;;;;;;;;5007446;28;20849;-77
2021/07/16 03:36:17;;;;;;;31.33;17.55;;;;;;;;;;5006984;28;20161;-77
2021/07/16 03:38:44;;;;;;;30.88;17.95;;;;;;;;;;5007170;28;20144;-77
2021/07/16 03:41:11;;;;;;;30.17;19.33;;;;;;;;;;5007470;28;20132;-77
2021/07/16 03:43:39;;;;;;;31.65;18.70;;;;;;;;;;5006215;28;20142;-78
2021/07/16 03:46:06;;;;;;;30.85;18.60;;;;;;;;;;5005716;28;20161;-77
2021/07/16 03:48:33;;;;;;;29.33;16.77;;;;;;;;;;5005760;28;20057;-77
2021/07/16 03:51:00;;;;;;;30.70;17.73;;;;;;;;;;5007164;28;20139;-77
2021/07/16 03:53:27;;;;;;;36.40;20.10;;;;;;;;;;5006694;28;20053;-77
2021/07/16 03:55:54;;;;;;;32.35;19.02;;;;;;;;;;5007517;28;20077;-77
2021/07/16 03:58:23;;;;;;;37.17;20.42;;;;;;;;;;5005312;28;20085;-77
2021/07/16 04:00:50;;;;;;;37.88;21.63;;;;;;;;;;5006116;28;20581;-77
2021/07/16 04:03:17;;;;;;;42.53;22.35;;;;;;;;;;5005203;28;20053;-78
2021/07/16 04:05:45;;;;;;;36.28;21.15;;;;;;;;;;5006013;28;20084;-77
2021/07/16 04:08:17;;;;;;;37.97;21.10;;;;;;;;;;5007487;28;20077;-77
2021/07/16 04:10:44;;;;;;;41.55;22.55;;;;;;;;;;5007068;28;20058;-78
2021/07/16 04:13:12;;;;;;;44.53;24.63;;;;;;;;;;5006924;28;20060;-78
2021/07/16 04:15:40;;;;;;;40.28;24.15;;;;;;;;;;5005562;28;20085;-78
2021/07/16 04:18:08;;;;;;;38.38;22.98;;;;;;;;;;5006686;28;20057;-78
2021/07/16 04:20:37;;;;;;;37.63;21.95;;;;;;;;;;5006819;28;20066;-78
2021/07/16 04:23:04;;;;;;;35.63;22.08;;;;;;;;;;5007083;28;20053;-77
2021/07/16 04:25:32;;;;;;;40.47;23.90;;;;;;;;;;5004818;28;20092;-78
2021/07/16 04:28:03;;;;;;;39.03;23.13;;;;;;;;;;5006170;28;20090;-78
2021/07/16 04:30:33;;;;;;;49.95;26.13;;;;;;;;;;5005672;28;20099;-78
2021/07/16 04:33:01;;;;;;;51.90;27.38;;;;;;;;;;5006337;28;20158;-78
2021/07/16 04:35:29;;;;;;;47.72;25.98;;;;;;;;;;5007321;28;20125;-78
2021/07/16 04:37:57;;;;;;;49.20;27.67;;;;;;;;;;5004455;28;20160;-78
2021/07/16 04:40:24;;;;;;;44.85;25.60;;;;;;;;;;5006852;28;20136;-77
2021/07/16 04:42:52;;;;;;;48.05;27.50;;;;;;;;;;5006414;28;20056;-77
2021/07/16 04:45:20;;;;;;;51.55;28.77;;;;;;;;;;5006218;28;20147;-77
2021/07/16 04:47:47;;;;;;;53.03;28.83;;;;;;;;;;5006886;28;20077;-80
2021/07/16 04:50:15;;;;;;;55.92;27.15;;;;;;;;;;5006964;28;20073;-79
2021/07/16 04:52:43;;;;;;;51.58;27.38;;;;;;;;;;5005192;28;20503;-78
2021/07/16 04:55:11;;;;;;;48.25;26.80;;;;;;;;;;5002493;28;20487;-79
2021/07/16 04:57:39;;;;;;;48.15;29.02;;;;;;;;;;4998637;28;20058;-76
2021/07/16 05:00:08;;;;;;;60.03;29.52;;;;;;;;;;5005243;28;20120;-80
2021/07/16 05:02:35;;;;;;;54.10;28.45;;;;;;;;;;5009498;28;20148;-79
2021/07/16 05:05:03;;;;;;;52.63;30.58;;;;;;;;;;5009562;28;20052;-78
2021/07/16 05:07:30;;;;;;;59.42;28.77;;;;;;;;;;5006112;28;20147;-78
2021/07/16 05:09:57;;;;;;;60.35;31.77;;;;;;;;;;4998432;28;20136;-80
2021/07/16 05:12:24;;;;;;;65.07;35.13;;;;;;;;;;5009090;28;20096;-77
2021/07/16 05:14:54;;;;;;;64.97;35.45;;;;;;;;;;5007263;28;20399;-78
2021/07/16 05:17:22;;;;;;;65.57;34.78;;;;;;;;;;5003233;28;20065;-77
2021/07/16 05:19:50;;;;;;;55.60;32.10;;;;;;;;;;5004426;28;20700;-77
2021/07/16 05:22:25;;;;;;;60.83;33.40;;;;;;;;;;4999569;28;20125;-84
2021/07/16 05:24:53;;;;;;;64.65;33.67;;;;;;;;;;5008610;28;20044;-78
2021/07/16 05:27:20;;;;;;;61.25;32.95;;;;;;;;;;5008565;28;20053;-77
2021/07/16 05:29:47;;;;;;;53.95;32.55;;;;;;;;;;5010064;28;20132;-78
2021/07/16 05:32:15;;;;;;;60.35;34.03;;;;;;;;;;5006685;28;20104;-77
2021/07/16 05:34:42;;;;;;;67.13;36.30;;;;;;;;;;5006740;28;20172;-77
2021/07/16 05:37:09;;;;;;;60.95;34.20;;;;;;;;;;5008692;28;20708;-78
2021/07/16 05:39:37;;;;;;;59.08;33.97;;;;;;;;;;5010295;28;20479;-78
2021/07/16 05:42:04;;;;;;;61.30;34.25;;;;;;;;;;5010597;28;20141;-77
2021/07/16 05:44:32;;;;;;;55.65;32.80;;;;;;;;;;5010788;28;20100;-77
2021/07/16 05:46:59;;;;;;;59.28;33.83;;;;;;;;;;5009806;28;20138;-78
2021/07/16 05:49:27;;;;;;;58.28;35.78;;;;;;;;;;5008596;28;20141;-78
2021/07/16 05:51:54;;;;;;;60.38;32.88;;;;;;;;;;5010060;28;20144;-79
2021/07/16 05:54:22;;;;;;;62.85;35.47;;;;;;;;;;5010221;28;20123;-78
2021/07/16 05:56:50;;;;;;;58.92;34.28;;;;;;;;;;5009959;28;20085;-77
2021/07/16 05:59:18;;;;;;;60.20;36.60;;;;;;;;;;5010097;28;20132;-78
2021/07/16 06:01:45;;;;;;;62.88;36.45;;;;;;;;;;5008557;28;20058;-77
2021/07/16 06:04:13;;;;;;;55.08;33.80;;;;;;;;;;5008730;28;20050;-78
2021/07/16 06:06:40;;;;;;;56.35;35.15;;;;;;;;;;5009368;28;20133;-77
2021/07/16 06:09:07;;;;;;;57.25;34.72;;;;;;;;;;5009282;28;20085;-77
2021/07/16 06:11:35;;;;;;;54.97;35.08;;;;;;;;;;5009965;28;20050;-77
2021/07/16 06:14:02;;;;;;;54.67;33.90;;;;;;;;;;5009979;28;20495;-77
2021/07/16 06:16:29;;;;;;;56.30;34.15;;;;;;;;;;5007866;28;20426;-77
2021/07/16 06:18:56;;;;;;;54.90;33.15;;;;;;;;;;5008499;28;20049;-77
2021/07/16 06:21:23;;;;;;;57.88;34.08;;;;;;;;;;5009548;28;20085;-77
2021/07/16 06:23:50;;;;;;;51.83;31.45;;;;;;;;;;5009553;28;20503;-77
2021/07/16 06:26:18;;;;;;;49.63;31.25;;;;;;;;;;5008785;28;20049;-78
2021/07/16 06:28:45;;;;;;;56.10;31.88;;;;;;;;;;5008284;28;20122;-78
2021/07/16 06:31:12;;;;;;;48.85;30.70;;;;;;;;;;5008982;28;20132;-77
2021/07/16 06:33:39;;;;;;;45.35;28.92;;;;;;;;;;5009434;28;20116;-77
2021/07/16 06:36:06;;;;;;;40.90;27.85;;;;;;;;;;5007865;28;20105;-78
2021/07/16 06:38:33;;;;;;;44.63;28.65;;;;;;;;;;5009375;28;20060;-78
2021/07/16 06:41:02;;;;;;;50.25;28.98;;;;;;;;;;5009169;28;20049;-78
2021/07/16 06:43:29;;;;;;;46.25;28.42;;;;;;;;;;5009097;28;20053;-78
2021/07/16 06:45:56;;;;;;;47.95;29.08;;;;;;;;;;5008985;28;20150;-77
2021/07/16 06:48:24;;;;;;;46.25;29.30;;;;;;;;;;5008445;28;20053;-78
2021/07/16 06:50:51;;;;;;;46.72;30.50;;;;;;;;;;5008792;28;20137;-78
2021/07/16 06:53:21;;;;;;;42.10;29.40;;;;;;;;;;5009280;28;20077;-78
2021/07/16 06:55:48;;;;;;;43.95;29.15;;;;;;;;;;5008677;28;20056;-77
2021/07/16 06:58:16;;;;;;;38.47;26.73;;;;;;;;;;5008575;28;20136;-78
2021/07/16 07:00:44;;;;;;;50.47;31.30;;;;;;;;;;5008222;28;20085;-78
2021/07/16 07:03:11;;;;;;;42.67;27.98;;;;;;;;;;5000577;28;20052;-78
2021/07/16 07:05:57;;;;;;;46.30;28.00;;;;;;;;;;5008392;28;20056;-78
2021/07/16 07:08:25;;;;;;;43.15;28.13;;;;;;;;;;5006798;28;20049;-78
2021/07/16 07:10:52;;;;;;;37.58;25.50;;;;;;;;;;5008885;28;20066;-78
2021/07/16 07:13:19;;;;;;;39.83;28.05;;;;;;;;;;5008526;28;20125;-78
2021/07/16 07:15:47;;;;;;;35.67;25.90;;;;;;;;;;5008331;28;20467;-78
2021/07/16 07:18:14;;;;;;;37.28;26.40;;;;;;;;;;5008755;28;20068;-78
2021/07/16 07:20:41;;;;;;;32.92;22.88;;;;;;;;;;5008318;28;20556;-78
2021/07/16 07:23:08;;;;;;;33.95;23.13;;;;;;;;;;5008115;28;20675;-78
2021/07/16 07:25:35;;;;;;;34.40;22.40;;;;;;;;;;5008195;28;20129;-78
2021/07/16 07:28:03;;;;;;;27.45;19.90;;;;;;;;;;5008213;28;20089;-78
2021/07/16 07:30:30;;;;;;;32.33;20.42;;;;;;;;;;5008099;28;20144;-78
2021/07/16 07:32:57;;;;;;;30.17;20.95;;;;;;;;;;5005805;28;20141;-78
2021/07/16 07:35:24;;;;;;;26.10;18.50;;;;;;;;;;4988110;28;20742;-78
2021/07/16 07:37:52;;;;;;;25.33;18.10;;;;;;;;;;4988113;28;20097;-78
2021/07/16 07:40:19;;;;;;;33.67;19.08;;;;;;;;;;4987053;28;20124;-78
2021/07/16 07:42:46;;;;;;;27.25;16.98;;;;;;;;;;4991323;28;20110;-78
2021/07/16 07:45:13;;;;;;;27.63;17.27;;;;;;;;;;5006529;28;20132;-78
2021/07/16 07:47:41;;;;;;;20.65;16.98;;;;;;;;;;5007880;28;20418;-78
2021/07/16 07:50:12;;;;;;;26.42;15.63;;;;;;;;;;5007604;28;20155;-78
2021/07/16 07:52:39;;;;;;;22.10;16.38;;;;;;;;;;5007320;28;20160;-78
2021/07/16 07:55:07;;;;;;;24.15;16.67;;;;;;;;;;5007686;28;20062;-77
2021/07/16 07:57:34;;;;;;;22.88;15.98;;;;;;;;;;5006101;28;20137;-78
2021/07/16 08:00:03;;;;;;;24.42;15.13;;;;;;;;;;5006414;28;20149;-78
2021/07/16 08:02:30;;;;;;;22.00;14.48;;;;;;;;;;5006955;28;20200;-78
2021/07/16 08:04:57;;;;;;;22.27;15.27;;;;;;;;;;5007211;28;20056;-78
2021/07/16 08:07:24;;;;;;;25.85;17.13;;;;;;;;;;5007265;28;20108;-78
2021/07/16 08:09:51;;;;;;;20.10;15.27;;;;;;;;;;5006216;28;20140;-78
2021/07/16 08:12:19;;;;;;;19.73;13.98;;;;;;;;;;5006711;28;20556;-78
2021/07/16 08:14:46;;;;;;;28.42;15.57;;;;;;;;;;5006557;28;20107;-78
2021/07/16 08:17:13;;;;;;;37.00;15.85;;;;;;;;;;5006562;28;20125;-78
2021/07/16 08:19:41;;;;;;;24.90;15.63;;;;;;;;;;5000615;28;20065;-78
2021/07/16 08:22:08;;;;;;;21.77;15.30;;;;;;;;;;5006126;28;20050;-78
2021/07/16 08:24:35;;;;;;;24.50;15.55;;;;;;;;;;5006454;28;20148;-78
2021/07/16 08:27:02;;;;;;;22.25;14.57;;;;;;;;;;5005193;28;20056;-77
2021/07/16 08:29:29;;;;;;;23.10;14.35;;;;;;;;;;5006367;28;20160;-78
2021/07/16 08:31:57;;;;;;;24.92;14.70;;;;;;;;;;5006330;28;20148;-78
2021/07/16 08:34:25;;;;;;;26.08;14.27;;;;;;;;;;5006637;28;20045;-78
2021/07/16 08:36:52;;;;;;;30.40;13.18;;;;;;;;;;5006652;28;20136;-78
2021/07/16 08:39:20;;;;;;;18.20;13.85;;;;;;;;;;5005202;28;20057;-78
2021/07/16 08:41:47;;;;;;;20.65;15.38;;;;;;;;;;5006177;28;20060;-78
2021/07/16 08:44:14;;;;;;;18.35;13.95;;;;;;;;;;5006871;28;20050;-78
2021/07/16 08:46:44;;;;;;;28.13;14.00;;;;;;;;;;5004560;28;20807;-78
2021/07/16 08:49:12;;;;;;;24.38;13.98;;;;;;;;;;5006675;28;20045;-78
2021/07/16 08:51:40;;;;;;;17.52;13.40;;;;;;;;;;5006066;28;20144;-78
2021/07/16 08:54:11;;;;;;;19.17;12.27;;;;;;;;;;5006122;28;20054;-78
2021/07/16 08:56:38;;;;;;;16.73;12.50;;;;;;;;;;5006189;28;20453;-78
2021/07/16 08:59:06;;;;;;;21.90;11.60;;;;;;;;;;5004922;28;20137;-78
2021/07/16 09:01:33;;;;;;;19.48;11.88;;;;;;;;;;5006101;28;20089;-78
2021/07/16 09:04:05;;;;;;;14.75;10.10;;;;;;;;;;5005887;28;20149;-78
2021/07/16 09:06:51;;;;;;;14.07;10.88;;;;;;;;;;5005082;28;20146;-78
2021/07/16 09:09:23;;;;;;;18.27;10.90;;;;;;;;;;5005893;28;20058;-78
2021/07/16 09:11:51;;;;;;;13.18;9.68;;;;;;;;;;5008026;28;20133;-78
2021/07/16 09:14:24;;;;;;;13.13;9.65;;;;;;;;;;5010507;28;20053;-78
2021/07/16 09:16:56;;;;;;;16.00;11.13;;;;;;;;;;5008830;28;20054;-78
2021/07/16 09:19:40;;;;;;;17.85;10.40;;;;;;;;;;5010790;28;20068;-78
2021/07/16 09:22:10;;;;;;;20.30;9.98;;;;;;;;;;5010234;28;20105;-78
2021/07/16 09:27:30;;;;;;;16.33;11.68;;;;;;;;;;4972156;28;20145;-78
2021/07/16 09:30:10;;;;;;;19.95;11.88;;;;;;;;;;4969740;28;20472;-78
2021/07/16 09:32:41;;;;;;;12.07;10.68;;;;;;;;;;4979264;28;20141;-78
2021/07/16 09:35:08;;;;;;;15.50;11.02;;;;;;;;;;4987919;28;20148;-77
2021/07/16 09:37:48;;;;;;;16.20;11.18;;;;;;;;;;4988547;28;20081;-78
2021/07/16 09:40:23;;;;;;;11.93;9.63;;;;;;;;;;4990061;28;20082;-78
2021/07/16 09:42:57;;;;;;;14.27;9.27;;;;;;;;;;4989864;28;20610;-78
2021/07/16 09:45:24;;;;;;;12.15;9.82;;;;;;;;;;4970984;28;20133;-78
2021/07/16 09:47:51;;;;;;;15.63;10.90;;;;;;;;;;4969182;28;20157;-79
2021/07/16 09:50:22;;;;;;;16.08;10.30;;;;;;;;;;4970355;28;20142;-78
2021/07/16 09:53:10;;;;;;;14.85;10.38;;;;;;;;;;4970526;28;20054;-78
2021/07/16 09:55:37;;;;;;;15.40;11.82;;;;;;;;;;4969878;28;20570;-78
2021/07/16 09:58:04;;;;;;;16.55;10.75;;;;;;;;;;4968357;28;20061;-77
2021/07/16 10:00:32;;;;;;;17.00;9.40;;;;;;;;;;4968514;28;20137;-78
2021/07/16 10:03:00;;;;;;;27.85;10.63;;;;;;;;;;4985018;28;20074;-78
2021/07/16 10:05:30;;;;;;;14.57;9.45;;;;;;;;;;4970057;28;20112;-78
2021/07/16 10:07:58;;;;;;;16.60;10.73;;;;;;;;;;4969939;28;20122;-78
2021/07/16 10:10:25;;;;;;;16.77;11.25;;;;;;;;;;4969745;28;20142;-78
2021/07/16 10:12:52;;;;;;;23.95;11.63;;;;;;;;;;4968592;28;20138;-78
2021/07/16 10:15:23;;;;;;;16.63;11.48;;;;;;;;;;4968581;28;20051;-77
2021/07/16 10:17:51;;;;;;;15.00;9.32;;;;;;;;;;4973288;28;20046;-77
2021/07/16 10:20:19;;;;;;;10.73;9.27;;;;;;;;;;4987435;28;20647;-78
2021/07/16 10:22:50;;;;;;;11.80;8.43;;;;;;;;;;4988652;28;20140;-77
2021/07/16 10:25:18;;;;;;;10.40;8.60;;;;;;;;;;4988429;28;20073;-78
2021/07/16 10:27:46;;;;;;;14.60;10.45;;;;;;;;;;4988106;28;20074;-78
2021/07/16 10:30:14;;;;;;;18.55;10.88;;;;;;;;;;4983364;28;20043;-77
2021/07/16 10:32:45;;;;;;;14.45;11.02;;;;;;;;;;4969377;28;20094;-78
2021/07/16 10:35:13;;;;;;;17.40;11.73;;;;;;;;;;4969510;28;20121;-77
2021/07/16 10:37:41;;;;;;;16.67;11.45;;;;;;;;;;4968284;28;20058;-78
2021/07/16 10:40:08;;;;;;;15.15;12.20;;;;;;;;;;4970028;28;20403;-78
2021/07/16 10:42:39;;;;;;;18.90;12.27;;;;;;;;;;4967150;28;20472;-78
2021/07/16 10:45:08;;;;;;;14.15;10.85;;;;;;;;;;4967954;28;20089;-78
2021/07/16 10:47:41;;;;;;;15.70;12.07;;;;;;;;;;4967765;28;20825;-77
2021/07/16 10:50:10;;;;;;;15.52;11.48;;;;;;;;;;4985402;28;20455;-78
2021/07/16 10:52:45;;;;;;;14.30;11.43;;;;;;;;;;4987627;28;20085;-78
2021/07/16 10:55:14;;;;;;;17.08;11.45;;;;;;;;;;4988222;28;20145;-78
2021/07/16 10:57:45;;;;;;;15.20;11.10;;;;;;;;;;4988701;28;20515;-78
2021/07/16 11:00:14;;;;;;;16.15;12.10;;;;;;;;;;4972683;28;20130;-78
2021/07/16 11:02:42;;;;;;;22.77;11.57;;;;;;;;;;4968875;28;20071;-78
2021/07/16 11:05:29;;;;;;;17.27;11.07;;;;;;;;;;4967448;28;20046;-78
2021/07/16 11:07:57;;;;;;;19.30;11.32;;;;;;;;;;4979975;28;20042;-78
2021/07/16 11:10:56;;;;;;;13.57;11.05;;;;;;;;;;4986677;28;20141;-78
2021/07/16 11:13:36;;;;;;;18.63;10.57;;;;;;;;;;4977106;28;20077;-78
2021/07/16 11:16:27;;;;;;;14.70;11.10;;;;;;;;;;4988227;28;20054;-78
2021/07/16 11:19:09;;;;;;;15.68;9.90;;;;;;;;;;4963165;28;20149;-78
2021/07/16 11:24:08;;;;;;;12.45;10.35;;;;;;;;;;4969209;28;20075;-77
2021/07/16 11:26:56;;;;;;;17.30;10.75;;;;;;;;;;4967938;28;20141;-78
2021/07/16 11:29:29;;;;;;;19.15;11.13;;;;;;;;;;4989324;28;20140;-78
2021/07/16 11:32:09;;;;;;;16.25;11.30;;;;;;;;;;4986358;28;20050;-78
2021/07/16 11:34:37;;;;;;;16.98;9.73;;;;;;;;;;4981178;28;20104;-78
2021/07/16 11:37:05;;;;;;;14.27;10.23;;;;;;;;;;4983424;28;20093;-78
2021/07/16 11:39:37;;;;;;;13.07;10.90;;;;;;;;;;4968505;28;20719;-78
2021/07/16 11:42:06;;;;;;;13.82;9.95;;;;;;;;;;4966638;28;20742;-78
2021/07/16 11:44:43;;;;;;;28.95;10.80;;;;;;;;;;4968079;28;20126;-78
2021/07/16 11:47:18;;;;;;;20.38;10.10;;;;;;;;;;4968688;28;20127;-78
2021/07/16 11:49:49;;;;;;;19.08;8.80;;;;;;;;;;4968345;28;20090;-78
2021/07/16 11:52:20;;;;;;;16.58;8.75;;;;;;;;;;4968080;28;20141;-78
2021/07/16 11:54:51;;;;;;;11.02;8.05;;;;;;;;;;4967386;28;20133;-78
2021/07/16 11:57:19;;;;;;;13.27;8.07;;;;;;;;;;4969254;28;20133;-78
2021/07/16 11:59:47;;;;;;;18.38;8.15;;;;;;;;;;4984803;28;20058;-78
2021/07/16 12:02:16;;;;;;;21.25;8.93;;;;;;;;;;4980712;28;20125;-78
2021/07/16 12:04:44;;;;;;;10.35;8.45;;;;;;;;;;4984143;28;20050;-78
2021/07/16 12:07:12;;;;;;;16.83;8.52;;;;;;;;;;4968217;28;20057;-78
2021/07/16 12:09:42;;;;;;;11.80;8.65;;;;;;;;;;4967054;28;20057;-78
2021/07/16 12:12:14;;;;;;;;;;;;;;;;;;4968268;28;20060;-78
2021/07/16 12:14:49;;;;;;;17.42;9.02;;;;;;;;;;4966709;28;19932;-78
2021/07/16 12:17:18;;;;;;;14.93;9.23;;;;;;;;;;4971299;28;20050;-78
2021/07/16 12:19:46;;;;;;;10.93;7.90;;;;;;;;;;4984470;28;20088;-78
2021/07/16 12:22:19;;;;;;;10.95;8.55;;;;;;;;;;4985420;28;20054;-78
2021/07/16 12:24:46;;;;;;;14.05;8.00;;;;;;;;;;4985892;28;20046;-78
2021/07/16 12:27:14;;;;;;;14.05;8.15;;;;;;;;;;4984033;28;20046;-79
2021/07/16 12:29:42;;;;;;;13.13;8.95;;;;;;;;;;4984648;28;20141;-78
2021/07/16 12:32:09;;;;;;;11.05;7.57;;;;;;;;;;4984166;28;20050;-78
2021/07/16 12:34:43;;;;;;;13.23;8.80;;;;;;;;;;4979946;28;20081;-78
2021/07/16 12:37:14;;;;;;;13.30;9.10;;;;;;;;;;4968378;28;20065;-79
2021/07/16 12:39:43;;;;;;;12.23;8.30;;;;;;;;;;4966991;28;20642;-78
2021/07/16 12:42:17;;;;;;;13.65;7.88;;;;;;;;;;4965766;28;20821;-78
2021/07/16 12:45:03;;;;;;;12.55;8.35;;;;;;;;;;4965379;28;20057;-78
2021/07/16 12:47:31;;;;;;;16.50;7.88;;;;;;;;;;4966349;28;20185;-77
2021/07/16 12:50:12;;;;;;;12.98;7.93;;;;;;;;;;4984463;28;20125;-78
2021/07/16 12:52:41;;;;;;;15.70;8.10;;;;;;;;;;4967341;28;20062;-78
2021/07/16 12:55:19;;;;;;;15.90;8.55;;;;;;;;;;4995724;28;20046;-78
2021/07/16 12:57:46;;;;;;;16.25;8.32;;;;;;;;;;4985142;28;20138;-77
2021/07/16 13:00:16;;;;;;;12.70;8.00;;;;;;;;;;4986110;28;20141;-78
2021/07/16 13:02:45;;;;;;;16.15;8.80;;;;;;;;;;4985756;28;20157;-78
2021/07/16 13:05:12;;;;;;;16.70;7.78;;;;;;;;;;4984227;28;20511;-78
2021/07/16 13:07:39;;;;;;;11.73;7.65;;;;;;;;;;4984880;28;20093;-78
2021/07/16 13:10:22;;;;;;;11.93;7.70;;;;;;;;;;4985376;28;20093;-78
2021/07/16 13:12:49;;;;;;;11.65;7.65;;;;;;;;;;4967266;28;20142;-78
2021/07/16 13:15:17;;;;;;;14.98;7.68;;;;;;;;;;4970793;28;20138;-78
2021/07/16 13:17:44;;;;;;;10.32;7.72;;;;;;;;;;4983708;28;20133;-78
2021/07/16 13:20:14;;;;;;;12.18;6.85;;;;;;;;;;4985555;28;20570;-79
2021/07/16 13:22:42;;;;;;;28.55;7.40;;;;;;;;;;4983584;28;20133;-78
2021/07/16 13:25:10;;;;;;;9.20;6.90;;;;;;;;;;4986055;28;20042;-79
2021/07/16 13:27:38;;;;;;;12.02;6.97;;;;;;;;;;4986445;28;20058;-79
2021/07/16 13:30:06;;;;;;;10.85;6.75;;;;;;;;;;4985082;28;20086;-79
2021/07/16 13:32:34;;;;;;;11.38;6.82;;;;;;;;;;4977238;28;20551;-79
2021/07/16 13:35:01;;;;;;;10.82;6.88;;;;;;;;;;4966056;28;20134;-79
2021/07/16 13:37:32;;;;;;;14.52;6.95;;;;;;;;;;4967149;28;20431;-78
2021/07/16 13:40:00;;;;;;;17.25;7.03;;;;;;;;;;4967075;28;20082;-79
2021/07/16 13:42:27;;;;;;;11.07;6.82;;;;;;;;;;4965016;28;20770;-78
2021/07/16 13:44:55;;;;;;;15.25;7.22;;;;;;;;;;4975886;28;20062;-78
2021/07/16 13:47:22;;;;;;;12.07;7.53;;;;;;;;;;4977367;28;20057;-78
2021/07/16 13:49:49;;;;;;;11.30;6.90;;;;;;;;;;4966961;28;20051;-79
2021/07/16 13:52:17;;;;;;;14.68;6.57;;;;;;;;;;4981765;28;20150;-77
2021/07/16 13:54:44;;;;;;;14.70;6.80;;;;;;;;;;4993247;28;20142;-80
2021/07/16 13:57:14;;;;;;;13.25;6.72;;;;;;;;;;4968387;28;20916;-79
2021/07/16 13:59:41;;;;;;;11.57;6.95;;;;;;;;;;4977836;28;20061;-80
2021/07/16 14:02:08;;;;;;;13.25;7.47;;;;;;;;;;4984198;28;20150;-79
2021/07/16 14:04:36;;;;;;;13.90;7.65;;;;;;;;;;4977986;28;20054;-79
2021/07/16 14:07:03;;;;;;;12.38;7.25;;;;;;;;;;4979176;28;20067;-80
2021/07/16 14:09:30;;;;;;;8.77;6.40;;;;;;;;;;4981922;28;20070;-79
2021/07/16 14:11:58;;;;;;;13.73;7.47;;;;;;;;;;4977883;28;20082;-80
2021/07/16 14:14:28;;;;;;;13.52;7.05;;;;;;;;;;4985882;28;20050;-79
2021/07/16 14:16:55;;;;;;;16.17;7.30;;;;;;;;;;4981062;28;20055;-79
2021/07/16 14:19:22;;;;;;;9.70;6.45;;;;;;;;;;4990379;28;20583;-79
2021/07/16 14:21:49;;;;;;;11.15;6.53;;;;;;;;;;4979221;28;20102;-79
2021/07/16 14:24:18;;;;;;;16.58;6.93;;;;;;;;;;4982902;28;20820;-79
2021/07/16 14:26:45;;;;;;;13.90;6.72;;;;;;;;;;4977065;28;20057;-79
2021/07/16 14:29:14;;;;;;;15.68;7.43;;;;;;;;;;4986627;28;20086;-80
2021/07/16 14:31:44;;;;;;;12.27;6.85;;;;;;;;;;4987685;28;20492;-79
2021/07/16 14:34:13;;;;;;;13.48;6.60;;;;;;;;;;4974795;28;20500;-79
2021/07/16 14:36:42;;;;;;;13.75;7.30;;;;;;;;;;4993975;28;20082;-78